Flemingville, New York
Current Conditions -  °F | °C
As of 4:53 AM on Monday 22 Dec 2014 (Local Time) from KBGM Reporting Station
Overcast Overcast  
Wind Chill: 21°   Ceiling: 1300
Heat Index: 26°   Visibility: 10mi
Dew Point: 23°   Wind: 5mph
Humidity: 88%   Direction: 130°SE
Pressure: 30.22"   Gusts: NA
Location:  42.1349°N, 76.2495°W
Report Text: KBGM 220953Z AUTO 13004KT 10SM OVC013 M03/M05 A3022 RMK AO2 SLP255 T10331050
Loading
Personal Weather Stations






























Interactive Weather Map New forecast layout! Learn more

10-Day Weather Forecast

Advertisements
Track Severe Weather on mobile